sensor_id;sensor_type;location;lat;lon;timestamp;P1;durP1;ratioP1;P2;durP2;ratioP2
32198;SDS011;19221;42.656;21.156;2023-02-28T00:00:45;79.65;;;34.55;;
32198;SDS011;19221;42.656;21.156;2023-02-28T00:03:11;81.70;;;33.30;;
32198;SDS011;19221;42.656;21.156;2023-02-28T00:05:37;76.82;;;34.17;;
32198;SDS011;19221;42.656;21.156;2023-02-28T00:08:02;77.97;;;33.72;;
32198;SDS011;19221;42.656;21.156;2023-02-28T00:10:29;82.60;;;33.92;;
32198;SDS011;19221;42.656;21.156;2023-02-28T00:12:56;81.88;;;34.33;;
32198;SDS011;19221;42.656;21.156;2023-02-28T00:15:24;91.53;;;36.03;;
32198;SDS011;19221;42.656;21.156;2023-02-28T00:17:50;96.65;;;35.53;;
32198;SDS011;19221;42.656;21.156;2023-02-28T00:20:16;82.65;;;35.13;;
32198;SDS011;19221;42.656;21.156;2023-02-28T00:22:44;85.45;;;36.38;;
32198;SDS011;19221;42.656;21.156;2023-02-28T00:25:10;73.10;;;32.15;;
32198;SDS011;19221;42.656;21.156;2023-02-28T00:27:37;89.68;;;37.05;;
32198;SDS011;19221;42.656;21.156;2023-02-28T00:30:03;86.93;;;35.25;;
32198;SDS011;19221;42.656;21.156;2023-02-28T00:32:29;82.72;;;35.85;;
32198;SDS011;19221;42.656;21.156;2023-02-28T00:34:56;95.07;;;37.80;;
32198;SDS011;19221;42.656;21.156;2023-02-28T00:37:22;87.88;;;35.78;;
32198;SDS011;19221;42.656;21.156;2023-02-28T00:39:48;87.18;;;37.47;;
32198;SDS011;19221;42.656;21.156;2023-02-28T00:42:14;82.85;;;36.55;;
32198;SDS011;19221;42.656;21.156;2023-02-28T00:44:39;86.90;;;37.58;;
32198;SDS011;19221;42.656;21.156;2023-02-28T00:47:05;87.43;;;38.42;;
32198;SDS011;19221;42.656;21.156;2023-02-28T00:49:31;84.35;;;35.28;;
32198;SDS011;19221;42.656;21.156;2023-02-28T00:51:56;96.28;;;37.60;;
32198;SDS011;19221;42.656;21.156;2023-02-28T00:54:22;92.57;;;36.40;;
32198;SDS011;19221;42.656;21.156;2023-02-28T00:56:48;89.80;;;35.75;;
32198;SDS011;19221;42.656;21.156;2023-02-28T00:59:14;89.18;;;36.33;;
32198;SDS011;19221;42.656;21.156;2023-02-28T01:01:40;86.15;;;37.28;;
32198;SDS011;19221;42.656;21.156;2023-02-28T01:04:06;92.13;;;38.10;;
32198;SDS011;19221;42.656;21.156;2023-02-28T01:06:32;92.50;;;39.80;;
32198;SDS011;19221;42.656;21.156;2023-02-28T01:08:57;90.45;;;40.03;;
32198;SDS011;19221;42.656;21.156;2023-02-28T01:11:23;97.30;;;42.65;;
32198;SDS011;19221;42.656;21.156;2023-02-28T01:13:49;93.43;;;42.15;;
32198;SDS011;19221;42.656;21.156;2023-02-28T01:16:15;97.30;;;43.88;;
32198;SDS011;19221;42.656;21.156;2023-02-28T01:18:40;116.68;;;46.92;;
32198;SDS011;19221;42.656;21.156;2023-02-28T01:21:10;100.65;;;45.67;;
32198;SDS011;19221;42.656;21.156;2023-02-28T01:23:38;115.25;;;49.22;;
32198;SDS011;19221;42.656;21.156;2023-02-28T01:26:17;122.72;;;49.88;;
32198;SDS011;19221;42.656;21.156;2023-02-28T01:28:43;119.65;;;50.97;;
32198;SDS011;19221;42.656;21.156;2023-02-28T01:31:09;111.43;;;45.50;;
32198;SDS011;19221;42.656;21.156;2023-02-28T01:33:35;115.35;;;48.83;;
32198;SDS011;19221;42.656;21.156;2023-02-28T01:36:02;108.53;;;49.17;;
32198;SDS011;19221;42.656;21.156;2023-02-28T01:38:29;111.30;;;47.92;;
32198;SDS011;19221;42.656;21.156;2023-02-28T01:40:54;112.85;;;47.25;;
32198;SDS011;19221;42.656;21.156;2023-02-28T01:43:24;97.30;;;44.17;;
32198;SDS011;19221;42.656;21.156;2023-02-28T01:45:50;96.13;;;42.25;;
32198;SDS011;19221;42.656;21.156;2023-02-28T01:48:16;102.50;;;41.47;;
32198;SDS011;19221;42.656;21.156;2023-02-28T01:50:43;94.00;;;39.05;;
32198;SDS011;19221;42.656;21.156;2023-02-28T01:53:10;95.90;;;38.05;;
32198;SDS011;19221;42.656;21.156;2023-02-28T01:55:38;82.57;;;35.83;;
32198;SDS011;19221;42.656;21.156;2023-02-28T01:58:05;76.75;;;34.72;;
32198;SDS011;19221;42.656;21.156;2023-02-28T02:00:32;95.20;;;38.28;;
32198;SDS011;19221;42.656;21.156;2023-02-28T02:03:05;82.97;;;32.90;;
32198;SDS011;19221;42.656;21.156;2023-02-28T02:05:31;80.35;;;36.55;;
32198;SDS011;19221;42.656;21.156;2023-02-28T02:07:58;84.28;;;38.88;;
32198;SDS011;19221;42.656;21.156;2023-02-28T02:15:28;87.75;;;36.67;;
32198;SDS011;19221;42.656;21.156;2023-02-28T02:17:56;86.53;;;38.50;;
32198;SDS011;19221;42.656;21.156;2023-02-28T02:20:36;108.45;;;50.10;;
32198;SDS011;19221;42.656;21.156;2023-02-28T02:33:16;66.85;;;31.73;;
32198;SDS011;19221;42.656;21.156;2023-02-28T02:35:53;65.22;;;32.03;;
32198;SDS011;19221;42.656;21.156;2023-02-28T02:38:30;66.63;;;31.45;;
32198;SDS011;19221;42.656;21.156;2023-02-28T02:43:29;63.05;;;31.65;;
32198;SDS011;19221;42.656;21.156;2023-02-28T02:46:02;66.13;;;32.35;;
32198;SDS011;19221;42.656;21.156;2023-02-28T02:48:31;66.65;;;31.90;;
32198;SDS011;19221;42.656;21.156;2023-02-28T02:50:59;64.38;;;30.20;;
32198;SDS011;19221;42.656;21.156;2023-02-28T02:53:30;64.55;;;31.67;;
32198;SDS011;19221;42.656;21.156;2023-02-28T02:55:57;68.75;;;32.65;;
32198;SDS011;19221;42.656;21.156;2023-02-28T02:58:25;60.13;;;30.15;;
32198;SDS011;19221;42.656;21.156;2023-02-28T03:00:56;68.53;;;34.80;;
32198;SDS011;19221;42.656;21.156;2023-02-28T03:03:23;65.55;;;32.42;;
32198;SDS011;19221;42.656;21.156;2023-02-28T03:05:54;71.47;;;33.63;;
32198;SDS011;19221;42.656;21.156;2023-02-28T03:08:20;61.20;;;30.70;;
32198;SDS011;19221;42.656;21.156;2023-02-28T03:10:47;61.03;;;29.77;;
32198;SDS011;19221;42.656;21.156;2023-02-28T03:23:38;65.93;;;32.95;;
32198;SDS011;19221;42.656;21.156;2023-02-28T03:26:19;54.55;;;29.13;;
32198;SDS011;19221;42.656;21.156;2023-02-28T03:33:55;60.30;;;28.38;;
32198;SDS011;19221;42.656;21.156;2023-02-28T03:36:29;59.97;;;29.90;;
32198;SDS011;19221;42.656;21.156;2023-02-28T03:41:22;62.40;;;31.05;;
32198;SDS011;19221;42.656;21.156;2023-02-28T03:43:49;64.43;;;30.40;;
32198;SDS011;19221;42.656;21.156;2023-02-28T03:46:18;63.80;;;32.67;;
32198;SDS011;19221;42.656;21.156;2023-02-28T03:48:57;63.60;;;30.98;;
32198;SDS011;19221;42.656;21.156;2023-02-28T03:51:25;66.28;;;31.42;;
32198;SDS011;19221;42.656;21.156;2023-02-28T03:53:53;62.40;;;31.40;;
32198;SDS011;19221;42.656;21.156;2023-02-28T04:01:30;64.55;;;31.48;;
32198;SDS011;19221;42.656;21.156;2023-02-28T04:03:57;66.57;;;34.17;;
32198;SDS011;19221;42.656;21.156;2023-02-28T04:06:23;67.95;;;33.65;;
32198;SDS011;19221;42.656;21.156;2023-02-28T04:08:49;73.80;;;34.83;;
32198;SDS011;19221;42.656;21.156;2023-02-28T04:11:18;60.83;;;31.65;;
32198;SDS011;19221;42.656;21.156;2023-02-28T04:13:44;64.40;;;31.23;;
32198;SDS011;19221;42.656;21.156;2023-02-28T04:16:10;59.70;;;30.17;;
32198;SDS011;19221;42.656;21.156;2023-02-28T04:18:40;62.92;;;30.92;;
32198;SDS011;19221;42.656;21.156;2023-02-28T04:21:06;57.85;;;29.70;;
32198;SDS011;19221;42.656;21.156;2023-02-28T04:23:32;58.58;;;30.00;;
32198;SDS011;19221;42.656;21.156;2023-02-28T04:25:58;60.10;;;30.45;;
32198;SDS011;19221;42.656;21.156;2023-02-28T04:28:24;64.40;;;32.83;;
32198;SDS011;19221;42.656;21.156;2023-02-28T04:30:56;64.10;;;32.15;;
32198;SDS011;19221;42.656;21.156;2023-02-28T04:33:22;60.05;;;31.17;;
32198;SDS011;19221;42.656;21.156;2023-02-28T04:35:48;61.75;;;31.00;;
32198;SDS011;19221;42.656;21.156;2023-02-28T04:38:13;54.47;;;27.10;;
32198;SDS011;19221;42.656;21.156;2023-02-28T04:40:39;51.22;;;25.75;;
32198;SDS011;19221;42.656;21.156;2023-02-28T04:43:05;47.47;;;24.27;;
32198;SDS011;19221;42.656;21.156;2023-02-28T04:45:30;46.58;;;24.65;;
32198;SDS011;19221;42.656;21.156;2023-02-28T04:47:57;40.80;;;22.45;;
32198;SDS011;19221;42.656;21.156;2023-02-28T04:50:23;43.63;;;22.92;;
32198;SDS011;19221;42.656;21.156;2023-02-28T04:52:49;43.03;;;22.35;;
32198;SDS011;19221;42.656;21.156;2023-02-28T04:55:14;38.53;;;20.92;;
32198;SDS011;19221;42.656;21.156;2023-02-28T04:57:40;38.30;;;22.67;;
32198;SDS011;19221;42.656;21.156;2023-02-28T05:00:08;42.05;;;22.70;;
32198;SDS011;19221;42.656;21.156;2023-02-28T05:02:37;45.95;;;23.48;;
32198;SDS011;19221;42.656;21.156;2023-02-28T05:05:02;52.85;;;27.42;;
32198;SDS011;19221;42.656;21.156;2023-02-28T05:07:28;45.97;;;26.33;;
32198;SDS011;19221;42.656;21.156;2023-02-28T05:09:54;41.00;;;22.70;;
32198;SDS011;19221;42.656;21.156;2023-02-28T05:12:20;42.33;;;22.58;;
32198;SDS011;19221;42.656;21.156;2023-02-28T05:14:45;38.78;;;21.35;;
32198;SDS011;19221;42.656;21.156;2023-02-28T05:17:11;40.05;;;20.98;;
32198;SDS011;19221;42.656;21.156;2023-02-28T05:19:37;40.85;;;20.15;;
32198;SDS011;19221;42.656;21.156;2023-02-28T05:22:02;38.28;;;20.92;;
32198;SDS011;19221;42.656;21.156;2023-02-28T05:24:28;37.80;;;20.80;;
32198;SDS011;19221;42.656;21.156;2023-02-28T05:26:54;39.15;;;21.05;;
32198;SDS011;19221;42.656;21.156;2023-02-28T05:29:20;40.20;;;20.38;;
32198;SDS011;19221;42.656;21.156;2023-02-28T05:31:45;40.53;;;22.33;;
32198;SDS011;19221;42.656;21.156;2023-02-28T05:34:11;41.63;;;20.50;;
32198;SDS011;19221;42.656;21.156;2023-02-28T05:36:38;44.90;;;21.52;;
32198;SDS011;19221;42.656;21.156;2023-02-28T05:39:05;41.25;;;22.20;;
32198;SDS011;19221;42.656;21.156;2023-02-28T05:41:30;42.30;;;23.00;;
32198;SDS011;19221;42.656;21.156;2023-02-28T05:43:57;42.88;;;23.10;;
32198;SDS011;19221;42.656;21.156;2023-02-28T05:46:24;44.63;;;23.23;;
32198;SDS011;19221;42.656;21.156;2023-02-28T05:48:50;40.30;;;21.70;;
32198;SDS011;19221;42.656;21.156;2023-02-28T05:51:16;41.90;;;23.73;;
32198;SDS011;19221;42.656;21.156;2023-02-28T05:53:42;45.47;;;22.77;;
32198;SDS011;19221;42.656;21.156;2023-02-28T05:56:07;43.42;;;23.65;;
32198;SDS011;19221;42.656;21.156;2023-02-28T05:58:33;41.65;;;23.10;;
32198;SDS011;19221;42.656;21.156;2023-02-28T06:01:00;46.70;;;24.55;;
32198;SDS011;19221;42.656;21.156;2023-02-28T06:03:26;48.90;;;23.85;;
32198;SDS011;19221;42.656;21.156;2023-02-28T06:05:52;50.08;;;23.65;;
32198;SDS011;19221;42.656;21.156;2023-02-28T06:08:18;55.83;;;25.63;;
32198;SDS011;19221;42.656;21.156;2023-02-28T06:10:43;45.67;;;23.20;;
32198;SDS011;19221;42.656;21.156;2023-02-28T06:13:10;47.13;;;21.15;;
32198;SDS011;19221;42.656;21.156;2023-02-28T06:15:37;41.83;;;22.33;;
32198;SDS011;19221;42.656;21.156;2023-02-28T06:18:02;40.47;;;21.23;;
32198;SDS011;19221;42.656;21.156;2023-02-28T06:20:28;49.08;;;21.48;;
32198;SDS011;19221;42.656;21.156;2023-02-28T06:22:57;41.83;;;22.65;;
32198;SDS011;19221;42.656;21.156;2023-02-28T06:25:26;52.38;;;25.33;;
32198;SDS011;19221;42.656;21.156;2023-02-28T06:27:53;59.03;;;28.23;;
32198;SDS011;19221;42.656;21.156;2023-02-28T06:30:18;53.78;;;24.35;;
32198;SDS011;19221;42.656;21.156;2023-02-28T06:32:51;106.22;;;60.00;;
32198;SDS011;19221;42.656;21.156;2023-02-28T06:35:17;51.22;;;27.48;;
32198;SDS011;19221;42.656;21.156;2023-02-28T06:37:43;47.50;;;22.23;;
32198;SDS011;19221;42.656;21.156;2023-02-28T06:40:09;46.75;;;26.50;;
32198;SDS011;19221;42.656;21.156;2023-02-28T06:42:35;48.42;;;26.25;;
32198;SDS011;19221;42.656;21.156;2023-02-28T06:45:01;43.72;;;22.90;;
32198;SDS011;19221;42.656;21.156;2023-02-28T06:47:30;52.97;;;24.23;;
32198;SDS011;19221;42.656;21.156;2023-02-28T06:49:55;53.40;;;22.75;;
32198;SDS011;19221;42.656;21.156;2023-02-28T06:52:21;59.60;;;25.63;;
32198;SDS011;19221;42.656;21.156;2023-02-28T06:54:47;56.67;;;23.58;;
32198;SDS011;19221;42.656;21.156;2023-02-28T06:57:29;66.13;;;27.33;;
32198;SDS011;19221;42.656;21.156;2023-02-28T06:59:58;59.88;;;27.52;;
32198;SDS011;19221;42.656;21.156;2023-02-28T07:02:24;64.60;;;27.98;;
32198;SDS011;19221;42.656;21.156;2023-02-28T07:04:50;62.42;;;28.23;;
32198;SDS011;19221;42.656;21.156;2023-02-28T07:07:15;66.13;;;28.70;;
32198;SDS011;19221;42.656;21.156;2023-02-28T07:09:42;64.45;;;28.63;;
32198;SDS011;19221;42.656;21.156;2023-02-28T07:12:08;63.70;;;29.88;;
32198;SDS011;19221;42.656;21.156;2023-02-28T07:14:33;70.40;;;29.02;;
32198;SDS011;19221;42.656;21.156;2023-02-28T07:17:01;66.50;;;29.08;;
32198;SDS011;19221;42.656;21.156;2023-02-28T07:19:27;65.82;;;31.00;;
32198;SDS011;19221;42.656;21.156;2023-02-28T07:21:53;66.95;;;31.90;;
32198;SDS011;19221;42.656;21.156;2023-02-28T07:24:19;69.05;;;29.35;;
32198;SDS011;19221;42.656;21.156;2023-02-28T07:26:44;77.03;;;31.40;;
32198;SDS011;19221;42.656;21.156;2023-02-28T07:29:10;73.43;;;31.17;;
32198;SDS011;19221;42.656;21.156;2023-02-28T07:31:35;67.18;;;31.67;;
32198;SDS011;19221;42.656;21.156;2023-02-28T07:34:01;86.45;;;33.53;;
32198;SDS011;19221;42.656;21.156;2023-02-28T07:36:27;76.38;;;34.80;;
32198;SDS011;19221;42.656;21.156;2023-02-28T07:38:54;81.43;;;34.50;;
32198;SDS011;19221;42.656;21.156;2023-02-28T07:41:21;82.07;;;33.28;;
32198;SDS011;19221;42.656;21.156;2023-02-28T07:43:47;82.18;;;33.80;;
32198;SDS011;19221;42.656;21.156;2023-02-28T07:46:13;87.13;;;35.35;;
32198;SDS011;19221;42.656;21.156;2023-02-28T07:48:42;90.15;;;35.33;;
32198;SDS011;19221;42.656;21.156;2023-02-28T07:51:08;94.38;;;37.08;;
32198;SDS011;19221;42.656;21.156;2023-02-28T07:53:34;82.15;;;35.80;;
32198;SDS011;19221;42.656;21.156;2023-02-28T07:56:00;83.82;;;34.53;;
32198;SDS011;19221;42.656;21.156;2023-02-28T07:58:26;85.25;;;36.33;;
32198;SDS011;19221;42.656;21.156;2023-02-28T08:00:53;88.15;;;34.63;;
32198;SDS011;19221;42.656;21.156;2023-02-28T08:03:20;85.75;;;38.05;;
32198;SDS011;19221;42.656;21.156;2023-02-28T08:05:46;88.15;;;36.53;;
32198;SDS011;19221;42.656;21.156;2023-02-28T08:08:11;86.53;;;36.38;;
32198;SDS011;19221;42.656;21.156;2023-02-28T08:10:37;91.07;;;35.90;;
32198;SDS011;19221;42.656;21.156;2023-02-28T08:13:03;99.50;;;42.33;;
32198;SDS011;19221;42.656;21.156;2023-02-28T08:15:29;99.88;;;40.58;;
32198;SDS011;19221;42.656;21.156;2023-02-28T08:17:54;88.97;;;37.97;;
32198;SDS011;19221;42.656;21.156;2023-02-28T08:20:22;94.32;;;37.83;;
32198;SDS011;19221;42.656;21.156;2023-02-28T08:22:49;87.55;;;38.15;;
32198;SDS011;19221;42.656;21.156;2023-02-28T08:25:15;93.70;;;37.97;;
32198;SDS011;19221;42.656;21.156;2023-02-28T08:27:41;92.53;;;37.88;;
32198;SDS011;19221;42.656;21.156;2023-02-28T08:30:07;95.88;;;40.40;;
32198;SDS011;19221;42.656;21.156;2023-02-28T08:32:35;99.93;;;39.97;;
32198;SDS011;19221;42.656;21.156;2023-02-28T08:35:00;107.60;;;41.83;;
32198;SDS011;19221;42.656;21.156;2023-02-28T08:37:27;100.50;;;41.95;;
32198;SDS011;19221;42.656;21.156;2023-02-28T08:39:52;103.88;;;49.42;;
32198;SDS011;19221;42.656;21.156;2023-02-28T08:42:18;95.10;;;42.05;;
32198;SDS011;19221;42.656;21.156;2023-02-28T08:44:44;94.78;;;43.10;;
32198;SDS011;19221;42.656;21.156;2023-02-28T08:47:09;96.30;;;41.80;;
32198;SDS011;19221;42.656;21.156;2023-02-28T08:49:36;100.60;;;43.78;;
32198;SDS011;19221;42.656;21.156;2023-02-28T08:52:03;94.07;;;41.42;;
32198;SDS011;19221;42.656;21.156;2023-02-28T08:54:28;86.88;;;40.88;;
32198;SDS011;19221;42.656;21.156;2023-02-28T08:56:56;106.75;;;47.42;;
32198;SDS011;19221;42.656;21.156;2023-02-28T08:59:22;117.60;;;47.50;;
32198;SDS011;19221;42.656;21.156;2023-02-28T09:01:48;134.73;;;53.50;;
32198;SDS011;19221;42.656;21.156;2023-02-28T09:04:13;103.82;;;45.85;;
32198;SDS011;19221;42.656;21.156;2023-02-28T09:06:39;100.30;;;46.38;;
32198;SDS011;19221;42.656;21.156;2023-02-28T09:09:05;130.55;;;59.60;;
32198;SDS011;19221;42.656;21.156;2023-02-28T09:11:33;137.50;;;62.55;;
32198;SDS011;19221;42.656;21.156;2023-02-28T09:13:59;127.22;;;61.78;;
32198;SDS011;19221;42.656;21.156;2023-02-28T09:16:26;78.03;;;35.35;;
32198;SDS011;19221;42.656;21.156;2023-02-28T09:18:52;103.20;;;42.90;;
32198;SDS011;19221;42.656;21.156;2023-02-28T09:21:18;95.72;;;44.28;;
32198;SDS011;19221;42.656;21.156;2023-02-28T09:23:45;77.10;;;34.83;;
32198;SDS011;19221;42.656;21.156;2023-02-28T09:26:15;65.18;;;30.08;;
32198;SDS011;19221;42.656;21.156;2023-02-28T09:28:41;56.45;;;26.13;;
32198;SDS011;19221;42.656;21.156;2023-02-28T09:31:10;77.65;;;37.67;;
32198;SDS011;19221;42.656;21.156;2023-02-28T09:33:37;75.07;;;32.53;;
32198;SDS011;19221;42.656;21.156;2023-02-28T09:36:02;63.83;;;30.88;;
32198;SDS011;19221;42.656;21.156;2023-02-28T09:38:29;77.70;;;33.53;;
32198;SDS011;19221;42.656;21.156;2023-02-28T09:40:56;61.97;;;30.63;;
32198;SDS011;19221;42.656;21.156;2023-02-28T09:43:31;69.93;;;31.63;;
32198;SDS011;19221;42.656;21.156;2023-02-28T09:46:05;76.05;;;34.22;;
32198;SDS011;19221;42.656;21.156;2023-02-28T09:48:35;65.93;;;33.17;;
32198;SDS011;19221;42.656;21.156;2023-02-28T09:51:04;70.65;;;33.42;;
32198;SDS011;19221;42.656;21.156;2023-02-28T09:53:31;78.05;;;37.40;;
32198;SDS011;19221;42.656;21.156;2023-02-28T10:01:00;84.85;;;35.92;;
32198;SDS011;19221;42.656;21.156;2023-02-28T10:03:30;74.82;;;35.40;;
32198;SDS011;19221;42.656;21.156;2023-02-28T10:06:06;72.07;;;34.63;;
32198;SDS011;19221;42.656;21.156;2023-02-28T10:08:37;82.97;;;32.30;;
32198;SDS011;19221;42.656;21.156;2023-02-28T10:11:09;73.70;;;32.28;;
32198;SDS011;19221;42.656;21.156;2023-02-28T10:13:46;77.40;;;33.05;;
32198;SDS011;19221;42.656;21.156;2023-02-28T10:16:32;77.63;;;35.17;;
32198;SDS011;19221;42.656;21.156;2023-02-28T10:19:01;64.07;;;29.08;;
32198;SDS011;19221;42.656;21.156;2023-02-28T10:26:49;58.00;;;25.67;;
32198;SDS011;19221;42.656;21.156;2023-02-28T10:29:18;54.35;;;24.05;;
32198;SDS011;19221;42.656;21.156;2023-02-28T10:31:43;63.63;;;29.88;;
32198;SDS011;19221;42.656;21.156;2023-02-28T10:34:10;54.30;;;25.00;;
32198;SDS011;19221;42.656;21.156;2023-02-28T10:36:37;55.67;;;26.25;;
32198;SDS011;19221;42.656;21.156;2023-02-28T10:39:21;61.38;;;28.38;;
32198;SDS011;19221;42.656;21.156;2023-02-28T10:41:49;66.43;;;31.73;;
32198;SDS011;19221;42.656;21.156;2023-02-28T10:44:22;61.35;;;28.85;;
32198;SDS011;19221;42.656;21.156;2023-02-28T10:46:48;59.40;;;25.95;;
32198;SDS011;19221;42.656;21.156;2023-02-28T10:49:15;57.05;;;24.73;;
32198;SDS011;19221;42.656;21.156;2023-02-28T10:51:43;69.63;;;25.90;;
32198;SDS011;19221;42.656;21.156;2023-02-28T10:54:15;63.33;;;29.02;;
32198;SDS011;19221;42.656;21.156;2023-02-28T10:56:41;68.80;;;29.02;;
32198;SDS011;19221;42.656;21.156;2023-02-28T11:01:36;66.97;;;26.40;;
32198;SDS011;19221;42.656;21.156;2023-02-28T11:04:32;66.00;;;27.42;;
32198;SDS011;19221;42.656;21.156;2023-02-28T11:06:59;61.05;;;26.75;;
32198;SDS011;19221;42.656;21.156;2023-02-28T11:12:34;65.28;;;23.73;;
32198;SDS011;19221;42.656;21.156;2023-02-28T11:15:06;67.57;;;28.55;;
32198;SDS011;19221;42.656;21.156;2023-02-28T11:17:32;49.58;;;22.38;;
32198;SDS011;19221;42.656;21.156;2023-02-28T11:20:04;61.97;;;25.13;;
32198;SDS011;19221;42.656;21.156;2023-02-28T11:22:33;52.95;;;22.65;;
32198;SDS011;19221;42.656;21.156;2023-02-28T11:25:02;65.47;;;25.95;;
32198;SDS011;19221;42.656;21.156;2023-02-28T11:29:59;61.00;;;25.55;;
32198;SDS011;19221;42.656;21.156;2023-02-28T11:32:27;58.20;;;24.02;;
32198;SDS011;19221;42.656;21.156;2023-02-28T11:35:01;61.90;;;24.23;;
32198;SDS011;19221;42.656;21.156;2023-02-28T11:37:28;54.95;;;24.25;;
32198;SDS011;19221;42.656;21.156;2023-02-28T11:39:54;58.63;;;26.45;;
32198;SDS011;19221;42.656;21.156;2023-02-28T11:52:54;59.70;;;25.27;;
32198;SDS011;19221;42.656;21.156;2023-02-28T12:08:49;60.20;;;25.58;;
32198;SDS011;19221;42.656;21.156;2023-02-28T12:11:36;69.65;;;28.60;;
32198;SDS011;19221;42.656;21.156;2023-02-28T12:26:48;65.25;;;26.92;;
32198;SDS011;19221;42.656;21.156;2023-02-28T12:29:23;62.45;;;28.73;;
32198;SDS011;19221;42.656;21.156;2023-02-28T12:32:09;68.03;;;28.27;;
32198;SDS011;19221;42.656;21.156;2023-02-28T12:34:44;68.55;;;27.98;;
32198;SDS011;19221;42.656;21.156;2023-02-28T12:37:19;67.00;;;31.65;;
32198;SDS011;19221;42.656;21.156;2023-02-28T12:39:49;65.70;;;28.08;;
32198;SDS011;19221;42.656;21.156;2023-02-28T12:42:19;69.47;;;28.38;;
32198;SDS011;19221;42.656;21.156;2023-02-28T12:44:49;64.80;;;27.83;;
32198;SDS011;19221;42.656;21.156;2023-02-28T12:47:17;66.53;;;27.50;;
32198;SDS011;19221;42.656;21.156;2023-02-28T12:52:08;61.47;;;24.80;;
32198;SDS011;19221;42.656;21.156;2023-02-28T12:57:36;65.93;;;27.20;;
32198;SDS011;19221;42.656;21.156;2023-02-28T13:00:10;68.68;;;30.30;;
32198;SDS011;19221;42.656;21.156;2023-02-28T13:10:38;93.70;;;37.85;;
32198;SDS011;19221;42.656;21.156;2023-02-28T13:13:06;58.22;;;25.55;;
32198;SDS011;19221;42.656;21.156;2023-02-28T13:15:32;52.78;;;24.38;;
32198;SDS011;19221;42.656;21.156;2023-02-28T13:18:03;64.65;;;27.15;;
32198;SDS011;19221;42.656;21.156;2023-02-28T13:20:34;65.40;;;25.17;;
32198;SDS011;19221;42.656;21.156;2023-02-28T13:23:03;59.10;;;25.52;;
32198;SDS011;19221;42.656;21.156;2023-02-28T13:28:01;59.08;;;28.75;;
32198;SDS011;19221;42.656;21.156;2023-02-28T13:35:48;61.97;;;27.25;;
32198;SDS011;19221;42.656;21.156;2023-02-28T13:38:21;59.63;;;26.67;;
32198;SDS011;19221;42.656;21.156;2023-02-28T13:40:47;62.03;;;26.08;;
32198;SDS011;19221;42.656;21.156;2023-02-28T13:43:13;64.32;;;27.02;;
32198;SDS011;19221;42.656;21.156;2023-02-28T13:45:44;65.50;;;26.95;;
32198;SDS011;19221;42.656;21.156;2023-02-28T13:48:28;62.55;;;25.08;;
32198;SDS011;19221;42.656;21.156;2023-02-28T13:50:54;54.63;;;25.88;;
32198;SDS011;19221;42.656;21.156;2023-02-28T13:53:27;64.38;;;25.73;;
32198;SDS011;19221;42.656;21.156;2023-02-28T14:11:25;73.22;;;29.92;;
32198;SDS011;19221;42.656;21.156;2023-02-28T14:13:51;68.43;;;29.90;;
32198;SDS011;19221;42.656;21.156;2023-02-28T14:16:20;58.33;;;29.75;;
32198;SDS011;19221;42.656;21.156;2023-02-28T14:21:35;65.30;;;29.50;;
32198;SDS011;19221;42.656;21.156;2023-02-28T14:31:58;75.57;;;34.83;;
32198;SDS011;19221;42.656;21.156;2023-02-28T14:36:55;70.38;;;32.47;;
32198;SDS011;19221;42.656;21.156;2023-02-28T14:39:24;78.55;;;31.30;;
32198;SDS011;19221;42.656;21.156;2023-02-28T14:41:51;64.85;;;30.27;;
32198;SDS011;19221;42.656;21.156;2023-02-28T14:44:21;77.35;;;33.30;;
32198;SDS011;19221;42.656;21.156;2023-02-28T14:47:11;72.40;;;33.85;;
32198;SDS011;19221;42.656;21.156;2023-02-28T14:49:36;71.60;;;34.10;;
32198;SDS011;19221;42.656;21.156;2023-02-28T14:52:07;69.65;;;33.85;;
32198;SDS011;19221;42.656;21.156;2023-02-28T14:54:37;67.55;;;32.10;;
32198;SDS011;19221;42.656;21.156;2023-02-28T14:57:03;65.97;;;31.08;;
32198;SDS011;19221;42.656;21.156;2023-02-28T14:59:32;77.75;;;30.58;;
32198;SDS011;19221;42.656;21.156;2023-02-28T15:02:16;66.30;;;30.80;;
32198;SDS011;19221;42.656;21.156;2023-02-28T15:04:42;64.50;;;29.70;;
32198;SDS011;19221;42.656;21.156;2023-02-28T15:07:08;64.93;;;29.35;;
32198;SDS011;19221;42.656;21.156;2023-02-28T15:09:34;66.78;;;28.95;;
32198;SDS011;19221;42.656;21.156;2023-02-28T15:12:00;64.40;;;28.65;;
32198;SDS011;19221;42.656;21.156;2023-02-28T15:14:25;74.63;;;32.95;;
32198;SDS011;19221;42.656;21.156;2023-02-28T15:16:57;74.55;;;33.33;;
32198;SDS011;19221;42.656;21.156;2023-02-28T15:19:32;69.13;;;30.00;;
32198;SDS011;19221;42.656;21.156;2023-02-28T15:22:02;68.35;;;29.98;;
32198;SDS011;19221;42.656;21.156;2023-02-28T15:26:58;71.55;;;32.97;;
32198;SDS011;19221;42.656;21.156;2023-02-28T15:29:25;69.25;;;31.98;;
32198;SDS011;19221;42.656;21.156;2023-02-28T15:36:58;70.43;;;32.35;;
32198;SDS011;19221;42.656;21.156;2023-02-28T15:39:25;69.10;;;33.20;;
32198;SDS011;19221;42.656;21.156;2023-02-28T15:41:54;80.13;;;36.65;;
32198;SDS011;19221;42.656;21.156;2023-02-28T15:44:34;80.15;;;37.03;;
32198;SDS011;19221;42.656;21.156;2023-02-28T15:47:07;78.80;;;35.45;;
32198;SDS011;19221;42.656;21.156;2023-02-28T15:49:40;72.55;;;37.20;;
32198;SDS011;19221;42.656;21.156;2023-02-28T15:52:11;82.00;;;36.53;;
32198;SDS011;19221;42.656;21.156;2023-02-28T15:54:38;78.40;;;36.17;;
32198;SDS011;19221;42.656;21.156;2023-02-28T15:57:07;77.55;;;33.60;;
32198;SDS011;19221;42.656;21.156;2023-02-28T15:59:33;64.07;;;33.10;;
32198;SDS011;19221;42.656;21.156;2023-02-28T16:02:12;81.72;;;36.72;;
32198;SDS011;19221;42.656;21.156;2023-02-28T16:04:54;77.40;;;35.40;;
32198;SDS011;19221;42.656;21.156;2023-02-28T16:07:20;69.97;;;31.38;;
32198;SDS011;19221;42.656;21.156;2023-02-28T16:09:45;67.40;;;31.17;;
32198;SDS011;19221;42.656;21.156;2023-02-28T16:12:12;69.00;;;32.65;;
32198;SDS011;19221;42.656;21.156;2023-02-28T16:14:38;78.88;;;34.53;;
32198;SDS011;19221;42.656;21.156;2023-02-28T16:17:17;75.30;;;32.58;;
32198;SDS011;19221;42.656;21.156;2023-02-28T16:19:44;70.85;;;31.95;;
32198;SDS011;19221;42.656;21.156;2023-02-28T16:22:10;65.88;;;31.33;;
32198;SDS011;19221;42.656;21.156;2023-02-28T16:24:36;58.97;;;28.42;;
32198;SDS011;19221;42.656;21.156;2023-02-28T16:27:02;68.07;;;30.02;;
32198;SDS011;19221;42.656;21.156;2023-02-28T16:29:32;58.83;;;26.85;;
32198;SDS011;19221;42.656;21.156;2023-02-28T16:31:59;67.93;;;29.60;;
32198;SDS011;19221;42.656;21.156;2023-02-28T16:34:25;68.05;;;28.75;;
32198;SDS011;19221;42.656;21.156;2023-02-28T16:36:50;69.93;;;30.17;;
32198;SDS011;19221;42.656;21.156;2023-02-28T16:39:16;67.10;;;30.40;;
32198;SDS011;19221;42.656;21.156;2023-02-28T16:41:43;60.17;;;29.08;;
32198;SDS011;19221;42.656;21.156;2023-02-28T16:44:11;81.25;;;33.67;;
32198;SDS011;19221;42.656;21.156;2023-02-28T16:46:37;67.53;;;31.70;;